Rock Hill, SC

7:40 AM EST on March 05, 2015 (GMT -0500)
Winthrop University | Change Station
CLOSE
Current Station
Personal Weather Station
Location: Rock Hill, SC
Elevation: 665 ft
Nearby Weather Stations

Elev 665 ft 34.94 °N, 81.03 °W | Updated 13 seconds ago

Overcast
Overcast
64.3 °F
Feels Like 64.3 °F
N
7.0
Wind Variable Wind from SSW
Gusts 7.0 mph

Today
High -- | Low -- °F
--% Chance of Precip.
Yesterday
High -- | Low -- °F
Precip. -- in
6:48 AM 6:23 PM
Full, 100% visible
Pressure 29.88 in
Visibility 2.5 miles
Clouds Overcast 1300 ft
Dew Point 60 °F
Humidity 85%
Rainfall in
Snow Depth Not available.
UV 0 out of 12
Pollen 2.00 out of 12
Air Quality Not available.
Flu Activity Not available.
SPECI KUZA 051233Z AUTO 21010KT 2 1/2SM -RA BR OVC013 18/17 A2988 RMK AO2 P0001 T01780167

More Conditions Fewer Conditions

Pressure 29.88 in
Visibility 2.5 miles
Clouds Overcast 1300 ft
Dew Point 60 °F
Humidity 85%
Rainfall in
Snow Depth Not available.
UV 0 out of 12
Pollen 2.00 out of 12
Air Quality Not available.
Flu Activity Not available.
SPECI KUZA 051233Z AUTO 21010KT 2 1/2SM -RA BR OVC013 18/17 A2988 RMK AO2 P0001 T01780167

More Conditions Fewer Conditions

10-Day Weather Forecast

Almanac

Astronomy

Mar. 05, 2015 Rise Set
Actual Time
Civil Twilight
Nautical Twilight
Astronomical Twilight
Moon
Length of Visible Light
Length of Day
Tomorrow will be .
, % of the Moon is Illuminated

Today's Extremes

State Highs State Lows

Community

WunderPhotos

Upload Photos

1,802,737 photos uploaded!

WunderBlogs® & News

Nearby

Air Quality

  Air Quality AQ Index Pollutant
Not available.

Snow Depth

Station Depth Elevation

Earthquake Activity

City Distance Mag. Time & Date
Minimum magnitude displayed is 2.5.

Coastal Water Temperatures

Place Temperature

Nearby Weather Stations